Time;durP1;ratioP1;P1;durP2;ratioP2;P2;SDS_P1;SDS_P2;PMS_P1;PMS_P2;Temp;Humidity;BMP_temperature;BMP_pressure;BME280_temperature;BME280_humidity;BME280_pressure;Samples;Min_cycle;Max_cycle;Signal;HPM_P1;HPM_P2
2023/01/27 00:02:07;;;;;;;8.47;1.60;;;;;5.00;101890.00;;;;10054640;29;20204;-79
2023/01/27 00:07:09;;;;;;;8.43;1.80;;;;;5.00;101891.00;;;;10098432;29;20220;-80
2023/01/27 00:17:42;;;;;;;7.40;1.47;;;;;5.00;101888.00;;;;10104923;29;20271;-79
2023/01/27 00:28:07;;;;;;;10.37;1.73;;;;;5.00;101885.00;;;;10086060;29;20236;-79
2023/01/27 00:33:25;;;;;;;3.80;1.57;;;;;5.00;101882.00;;;;10099116;29;20204;-79
2023/01/27 00:38:29;;;;;;;5.97;1.90;;;;;5.10;101879.00;;;;10090050;29;20880;-79
2023/01/27 00:43:30;;;;;;;10.20;1.37;;;;;5.10;101871.00;;;;10119834;29;20210;-79
2023/01/27 00:48:32;;;;;;;10.10;1.87;;;;;5.00;101864.00;;;;10099924;29;20223;-80
2023/01/27 00:53:34;;;;;;;11.50;2.80;;;;;5.00;101880.00;;;;10074995;29;20203;-79
2023/01/27 00:58:37;;;;;;;4.03;1.33;;;;;5.00;101879.00;;;;10081793;29;20731;-79
2023/01/27 01:03:39;;;;;;;12.10;1.80;;;;;5.00;101883.00;;;;10090725;29;20247;-78
2023/01/27 01:08:41;;;;;;;12.10;1.73;;;;;5.00;101873.00;;;;10105385;29;20231;-78
2023/01/27 01:13:44;;;;;;;10.27;1.70;;;;;5.00;101874.00;;;;10105442;29;20586;-78
2023/01/27 01:18:46;;;;;;;8.00;1.77;;;;;5.00;101874.00;;;;10084543;29;20215;-79
2023/01/27 01:23:48;;;;;;;8.33;1.57;;;;;5.00;101864.00;;;;10087761;29;20207;-79
2023/01/27 01:28:51;;;;;;;7.57;1.57;;;;;5.00;101865.00;;;;10109003;29;20721;-79
2023/01/27 01:33:53;;;;;;;6.37;1.47;;;;;5.00;101862.00;;;;10115973;29;20204;-78
2023/01/27 01:38:57;;;;;;;4.27;1.47;;;;;4.90;101876.00;;;;10096733;29;20245;-79
2023/01/27 01:44:27;;;;;;;5.90;1.60;;;;;4.90;101883.00;;;;10102467;29;20203;-80
2023/01/27 01:49:35;;;;;;;10.27;2.17;;;;;4.90;101872.00;;;;10078805;29;20231;-78
2023/01/27 01:54:44;;;;;;;4.40;2.10;;;;;4.90;101877.00;;;;10099461;29;20279;-79
2023/01/27 01:59:51;;;;;;;10.07;2.07;;;;;4.80;101872.00;;;;10098922;29;20230;-78
2023/01/27 02:04:59;;;;;;;5.97;1.63;;;;;4.80;101881.00;;;;10113128;29;20199;-79
2023/01/27 02:10:01;;;;;;;5.93;1.60;;;;;4.80;101874.00;;;;10067600;29;20295;-78
2023/01/27 02:15:05;;;;;;;10.23;3.07;;;;;4.80;101882.00;;;;10104079;29;20207;-79
2023/01/27 02:20:10;;;;;;;3.70;2.10;;;;;4.80;101887.00;;;;10117559;29;20707;-79
2023/01/27 02:25:33;;;;;;;11.47;2.77;;;;;4.70;101880.00;;;;10101164;29;20620;-79
2023/01/27 02:30:35;;;;;;;8.53;2.60;;;;;4.70;101885.00;;;;10087401;29;20218;-78
2023/01/27 02:35:53;;;;;;;10.23;2.60;;;;;4.70;101879.00;;;;10111598;29;20212;-79
2023/01/27 02:41:00;;;;;;;8.33;2.33;;;;;4.70;101881.00;;;;10082657;29;20207;-79
2023/01/27 02:46:02;;;;;;;5.90;2.10;;;;;4.60;101877.00;;;;10112027;29;20628;-79
2023/01/27 02:51:04;;;;;;;7.10;2.57;;;;;4.60;101879.00;;;;10081678;29;20650;-78
2023/01/27 02:56:08;;;;;;;4.47;2.50;;;;;4.60;101883.00;;;;10095990;29;20209;-79
2023/01/27 03:01:10;;;;;;;6.00;2.37;;;;;4.60;101875.00;;;;10111136;29;20703;-79
2023/01/27 03:06:13;;;;;;;5.40;2.00;;;;;4.60;101880.00;;;;10110544;29;20881;-79
2023/01/27 03:12:18;;;;;;;10.27;2.83;;;;;4.60;101889.00;;;;10114538;29;20279;-79
2023/01/27 03:22:02;;;;;;;5.87;2.30;;;;;4.50;101895.00;;;;10098376;29;20302;-78
2023/01/27 03:27:06;;;;;;;7.60;2.67;;;;;4.50;101893.00;;;;10091310;29;20587;-78
2023/01/27 03:32:30;;;;;;;9.00;2.63;;;;;4.50;101899.00;;;;10112570;29;20850;-78
2023/01/27 03:48:54;;;;;;;6.93;2.93;;;;;4.50;101909.00;;;;10109092;29;20450;-78
2023/01/27 03:53:56;;;;;;;9.63;3.17;;;;;4.40;101913.00;;;;10111156;29;20705;-79
2023/01/27 03:58:58;;;;;;;9.90;3.37;;;;;4.40;101906.00;;;;10125941;29;20226;-79
2023/01/27 04:09:23;;;;;;;4.77;2.40;;;;;4.40;101918.00;;;;10110205;29;20223;-79
2023/01/27 04:14:28;;;;;;;12.70;2.77;;;;;4.30;101924.00;;;;10145988;29;20206;-79
2023/01/27 04:19:30;;;;;;;12.43;3.97;;;;;4.30;101930.00;;;;10145901;29;20203;-78
2023/01/27 04:24:32;;;;;;;9.57;4.50;;;;;4.20;101925.00;;;;10091559;29;20666;-78
2023/01/27 04:29:36;;;;;;;7.80;3.30;;;;;4.10;101937.00;;;;10091151;29;20802;-78
2023/01/27 04:34:39;;;;;;;9.43;3.27;;;;;4.10;101939.00;;;;10107959;29;20200;-80
2023/01/27 04:39:44;;;;;;;5.87;3.53;;;;;4.10;101945.00;;;;10093421;29;20211;-79
2023/01/27 04:44:46;;;;;;;9.07;3.87;;;;;4.00;101942.00;;;;10109228;29;20298;-79
2023/01/27 04:49:47;;;;;;;13.17;4.13;;;;;4.00;101942.00;;;;10092670;29;20223;-78
2023/01/27 04:54:49;;;;;;;5.97;3.87;;;;;3.90;101935.00;;;;10103498;29;20217;-79
2023/01/27 04:59:51;;;;;;;6.57;3.23;;;;;3.90;101950.00;;;;10102338;29;20200;-79
2023/01/27 05:04:53;;;;;;;5.73;3.33;;;;;3.90;101957.00;;;;10100575;29;20294;-79
2023/01/27 05:09:55;;;;;;;6.07;3.70;;;;;3.90;101957.00;;;;10115706;29;20314;-78
2023/01/27 05:14:57;;;;;;;6.47;3.87;;;;;3.90;101971.00;;;;10114908;29;20260;-79
2023/01/27 05:19:59;;;;;;;12.70;5.60;;;;;3.90;101956.00;;;;10100879;29;20616;-80
2023/01/27 05:25:01;;;;;;;8.27;4.43;;;;;3.90;101957.00;;;;10101671;29;20334;-79
2023/01/27 05:30:03;;;;;;;12.63;4.77;;;;;3.90;101969.00;;;;10090910;29;20718;-79
2023/01/27 05:35:06;;;;;;;15.90;4.73;;;;;3.80;101972.00;;;;10098452;29;20212;-80
2023/01/27 05:40:09;;;;;;;9.50;4.77;;;;;3.80;101981.00;;;;10114093;29;20781;-79
2023/01/27 05:45:11;;;;;;;14.67;5.03;;;;;3.80;101973.00;;;;10115266;29;20973;-80
2023/01/27 05:50:14;;;;;;;15.17;4.70;;;;;3.80;101977.00;;;;10095026;29;20232;-79
2023/01/27 05:55:16;;;;;;;12.50;4.60;;;;;3.80;101983.00;;;;10115339;29;20203;-79
2023/01/27 06:00:18;;;;;;;12.67;6.13;;;;;3.80;101986.00;;;;10099740;29;20212;-79
2023/01/27 06:05:20;;;;;;;12.37;5.00;;;;;3.70;101988.00;;;;10115403;29;20235;-79
2023/01/27 06:10:22;;;;;;;11.07;6.00;;;;;3.70;101997.00;;;;10093812;29;20283;-79
2023/01/27 06:15:23;;;;;;;9.07;4.93;;;;;3.70;102004.00;;;;10084121;29;20207;-80
2023/01/27 06:20:25;;;;;;;12.67;5.20;;;;;3.70;102003.00;;;;10083531;29;20298;-79
2023/01/27 06:25:27;;;;;;;8.67;4.87;;;;;3.60;102002.00;;;;10097388;29;20207;-80
2023/01/27 06:30:30;;;;;;;12.80;5.13;;;;;3.60;102009.00;;;;10114219;29;20855;-80
2023/01/27 06:35:34;;;;;;;14.50;5.23;;;;;3.60;102007.00;;;;10089755;29;20212;-80
2023/01/27 06:40:36;;;;;;;17.57;6.20;;;;;3.50;102019.00;;;;10098588;29;20222;-80
2023/01/27 06:45:38;;;;;;;13.23;6.47;;;;;3.50;102007.00;;;;10113375;29;20662;-79
2023/01/27 06:50:41;;;;;;;13.10;6.27;;;;;3.50;102024.00;;;;10068021;29;20228;-79
2023/01/27 06:55:43;;;;;;;11.53;6.53;;;;;3.50;102031.00;;;;10083545;29;20208;-79
2023/01/27 07:00:45;;;;;;;12.50;5.63;;;;;3.40;102028.00;;;;10114275;29;20263;-79
2023/01/27 07:05:47;;;;;;;13.50;6.43;;;;;3.40;102034.00;;;;10114105;29;20263;-79
2023/01/27 07:10:49;;;;;;;16.80;6.93;;;;;3.40;102043.00;;;;10114432;29;20224;-79
2023/01/27 07:15:55;;;;;;;18.93;7.20;;;;;3.40;102045.00;;;;10112126;29;20204;-78
2023/01/27 07:20:57;;;;;;;12.37;6.40;;;;;3.40;102053.00;;;;10069503;29;20271;-79
2023/01/27 07:26:01;;;;;;;15.13;7.10;;;;;3.40;102062.00;;;;10111185;29;20559;-78
2023/01/27 07:31:06;;;;;;;16.60;7.93;;;;;3.40;102067.00;;;;10096080;29;20247;-78
2023/01/27 07:36:08;;;;;;;16.00;6.60;;;;;3.40;102072.00;;;;10110563;29;20207;-78
2023/01/27 07:41:10;;;;;;;17.90;8.83;;;;;3.30;102067.00;;;;10110698;29;20222;-78
2023/01/27 07:46:12;;;;;;;18.07;7.23;;;;;3.30;102073.00;;;;10093878;29;20208;-78
2023/01/27 07:51:15;;;;;;;17.53;8.17;;;;;3.30;102072.00;;;;10098993;29;20227;-78
2023/01/27 07:56:17;;;;;;;16.93;8.13;;;;;3.40;102069.00;;;;10067029;29;20215;-78
2023/01/27 08:01:18;;;;;;;19.43;8.10;;;;;3.50;102069.00;;;;10129112;29;20200;-78
2023/01/27 08:06:20;;;;;;;19.07;8.53;;;;;3.60;102068.00;;;;10082827;29;20753;-79
2023/01/27 08:11:22;;;;;;;19.57;8.80;;;;;3.60;102074.00;;;;10111958;29;20317;-78
2023/01/27 08:16:24;;;;;;;15.60;7.13;;;;;3.70;102073.00;;;;10097562;29;20204;-79
2023/01/27 08:21:31;;;;;;;17.50;7.77;;;;;3.90;102087.00;;;;10083100;29;20200;-79
2023/01/27 08:26:33;;;;;;;15.43;6.77;;;;;4.00;102082.00;;;;10081909;29;20207;-78
2023/01/27 08:31:35;;;;;;;14.10;6.33;;;;;3.90;102079.00;;;;10114236;29;20251;-79
2023/01/27 08:36:40;;;;;;;11.43;6.97;;;;;3.90;102084.00;;;;10086356;29;20239;-78
2023/01/27 08:41:42;;;;;;;13.17;6.10;;;;;3.90;102082.00;;;;10065904;29;20266;-79
2023/01/27 08:46:44;;;;;;;16.63;6.83;;;;;3.90;102094.00;;;;10088001;29;20236;-79
2023/01/27 08:51:46;;;;;;;13.63;5.83;;;;;3.90;102086.00;;;;10115741;29;20628;-79
2023/01/27 08:56:48;;;;;;;18.33;7.83;;;;;3.90;102097.00;;;;10116300;29;20200;-79
2023/01/27 09:01:50;;;;;;;10.87;6.83;;;;;4.00;102098.00;;;;10099849;29;20207;-79
2023/01/27 09:06:53;;;;;;;17.87;7.77;;;;;4.00;102103.00;;;;10094147;29;20215;-79
2023/01/27 09:11:55;;;;;;;12.23;6.90;;;;;4.00;102103.00;;;;10103699;29;20219;-79
2023/01/27 09:16:56;;;;;;;12.27;6.90;;;;;4.10;102106.00;;;;10071972;29;20212;-79
2023/01/27 09:21:58;;;;;;;12.20;6.57;;;;;4.10;102107.00;;;;10120076;29;20239;-79
2023/01/27 09:27:00;;;;;;;14.03;8.00;;;;;4.20;102110.00;;;;10074622;29;20211;-79
2023/01/27 09:32:02;;;;;;;12.57;6.63;;;;;4.20;102121.00;;;;10088575;29;20790;-79
2023/01/27 09:37:12;;;;;;;12.07;6.50;;;;;4.30;102119.00;;;;10089147;29;20218;-79
2023/01/27 09:42:17;;;;;;;12.13;6.93;;;;;4.30;102130.00;;;;10127541;29;20901;-79
2023/01/27 09:47:28;;;;;;;16.30;6.80;;;;;4.50;102136.00;;;;10082984;29;20773;-79
2023/01/27 09:53:07;;;;;;;11.87;6.43;;;;;4.50;102128.00;;;;10105554;29;20228;-78
2023/01/27 09:58:18;;;;;;;12.73;6.50;;;;;4.50;102132.00;;;;10111494;29;20203;-79
2023/01/27 10:03:42;;;;;;;9.87;5.90;;;;;4.50;102139.00;;;;10113819;29;20215;-78
2023/01/27 10:09:02;;;;;;;12.43;6.40;;;;;4.50;102134.00;;;;10076663;29;20223;-78
2023/01/27 10:14:22;;;;;;;12.77;5.93;;;;;4.60;102128.00;;;;10096404;29;20227;-79
2023/01/27 10:19:52;;;;;;;10.27;6.23;;;;;4.70;102140.00;;;;10103685;29;20219;-79
2023/01/27 10:25:22;;;;;;;9.20;5.77;;;;;4.80;102131.00;;;;10074244;29;20212;-79
2023/01/27 10:30:36;;;;;;;9.97;6.10;;;;;4.80;102125.00;;;;10108410;29;20801;-78
2023/01/27 10:35:52;;;;;;;9.27;5.37;;;;;4.90;102121.00;;;;10083981;29;20199;-78
2023/01/27 10:41:13;;;;;;;8.07;5.40;;;;;4.90;102113.00;;;;10105793;29;20558;-78
2023/01/27 10:46:45;;;;;;;9.13;5.50;;;;;4.90;102126.00;;;;10091797;29;20199;-79
2023/01/27 10:52:17;;;;;;;9.13;5.07;;;;;5.20;102109.00;;;;10093547;29;20219;-80
2023/01/27 10:57:32;;;;;;;8.43;4.90;;;;;5.60;102112.00;;;;10106203;29;20225;-78
2023/01/27 11:02:57;;;;;;;6.00;4.30;;;;;5.80;102107.00;;;;10110789;29;20202;-79
2023/01/27 11:08:06;;;;;;;6.27;4.73;;;;;5.90;102114.00;;;;10087972;29;20219;-79
2023/01/27 11:13:12;;;;;;;6.37;4.17;;;;;6.10;102106.00;;;;10092844;29;20754;-78
2023/01/27 11:18:24;;;;;;;6.97;4.17;;;;;6.20;102109.00;;;;10085412;29;20212;-79
2023/01/27 11:23:29;;;;;;;4.80;3.57;;;;;6.10;102116.00;;;;10107402;29;20211;-79
2023/01/27 11:28:49;;;;;;;7.03;4.63;;;;;6.20;102106.00;;;;10078561;29;20228;-79
2023/01/27 11:34:06;;;;;;;5.23;3.40;;;;;6.10;102096.00;;;;10075824;29;20234;-78
2023/01/27 11:39:12;;;;;;;4.30;3.50;;;;;6.00;102093.00;;;;10085983;29;20214;-79
2023/01/27 11:44:28;;;;;;;5.90;3.80;;;;;5.90;102095.00;;;;10102450;29;20211;-79
2023/01/27 11:49:35;;;;;;;6.03;3.87;;;;;6.00;102093.00;;;;10138933;29;20630;-78
2023/01/27 11:54:50;;;;;;;3.80;3.20;;;;;5.90;102092.00;;;;10051052;29;20215;-79
2023/01/27 12:00:06;;;;;;;5.60;3.20;;;;;5.80;102088.00;;;;10080827;29;20203;-79
2023/01/27 12:05:24;;;;;;;5.30;3.30;;;;;5.90;102099.00;;;;10103979;29;20860;-79
2023/01/27 12:10:30;;;;;;;4.67;3.77;;;;;5.90;102105.00;;;;10100483;29;20230;-79
2023/01/27 12:15:33;;;;;;;4.03;3.10;;;;;5.90;102097.00;;;;10074229;29;20206;-78
2023/01/27 12:20:43;;;;;;;4.43;3.50;;;;;5.80;102099.00;;;;10076993;29;20760;-79
2023/01/27 12:25:56;;;;;;;4.20;3.50;;;;;5.70;102091.00;;;;10133025;29;20203;-78
2023/01/27 12:31:15;;;;;;;6.33;3.80;;;;;5.60;102085.00;;;;10100426;29;20239;-79
2023/01/27 12:36:23;;;;;;;4.50;3.63;;;;;5.50;102083.00;;;;10118582;29;20239;-79
2023/01/27 12:41:33;;;;;;;9.30;3.87;;;;;5.50;102081.00;;;;10102229;29;20200;-78
2023/01/27 12:46:38;;;;;;;5.17;3.93;;;;;5.50;102079.00;;;;10116116;29;20875;-78
2023/01/27 12:51:52;;;;;;;5.00;3.13;;;;;5.40;102071.00;;;;10101489;29;20275;-78
2023/01/27 12:57:01;;;;;;;4.10;3.50;;;;;5.30;102070.00;;;;10115875;29;20200;-78
2023/01/27 13:02:17;;;;;;;6.07;3.50;;;;;5.30;102068.00;;;;10115924;29;20215;-80
2023/01/27 13:07:25;;;;;;;4.87;3.30;;;;;5.30;102069.00;;;;10086140;29;20874;-78
2023/01/27 13:12:31;;;;;;;4.57;3.57;;;;;5.40;102068.00;;;;10084571;29;20264;-79
2023/01/27 13:17:48;;;;;;;6.70;3.40;;;;;5.30;102056.00;;;;10071727;29;20216;-79
2023/01/27 13:23:22;;;;;;;4.07;3.10;;;;;5.20;102057.00;;;;10099694;29;20214;-79
2023/01/27 13:28:33;;;;;;;7.17;3.50;;;;;5.20;102064.00;;;;10112653;29;20207;-79
2023/01/27 13:34:16;;;;;;;3.57;2.93;;;;;5.30;102061.00;;;;10114647;29;20314;-78
2023/01/27 13:39:50;;;;;;;4.07;3.07;;;;;5.40;102062.00;;;;10115159;29;20207;-79
2023/01/27 13:45:01;;;;;;;3.43;3.07;;;;;5.40;102075.00;;;;10098402;29;20531;-78
2023/01/27 13:50:23;;;;;;;4.53;3.20;;;;;5.40;102065.00;;;;10081483;29;20207;-79
2023/01/27 13:55:47;;;;;;;4.80;3.00;;;;;5.40;102076.00;;;;10105576;29;20211;-79
2023/01/27 14:01:12;;;;;;;4.40;3.20;;;;;5.40;102072.00;;;;10130455;29;20654;-79
2023/01/27 14:06:42;;;;;;;5.30;3.47;;;;;5.20;102084.00;;;;10114647;29;20754;-78
2023/01/27 14:11:47;;;;;;;4.17;3.33;;;;;5.20;102077.00;;;;10109321;29;20231;-79
2023/01/27 14:17:06;;;;;;;4.80;3.43;;;;;5.10;102088.00;;;;10089221;29;20220;-79
2023/01/27 14:22:18;;;;;;;6.90;3.90;;;;;5.00;102098.00;;;;10098691;29;20446;-79
2023/01/27 14:27:54;;;;;;;6.17;3.03;;;;;4.90;102109.00;;;;10097387;29;20681;-79
2023/01/27 14:32:56;;;;;;;5.43;3.50;;;;;4.90;102110.00;;;;10078222;29;20235;-78
2023/01/27 14:38:10;;;;;;;7.33;3.80;;;;;4.90;102112.00;;;;10067124;29;20203;-79
2023/01/27 14:43:24;;;;;;;5.33;3.67;;;;;4.80;102107.00;;;;10111400;29;20826;-78
2023/01/27 14:48:59;;;;;;;5.00;3.40;;;;;4.80;102121.00;;;;10136102;29;20699;-79
2023/01/27 14:54:21;;;;;;;3.87;3.17;;;;;4.70;102111.00;;;;10080427;29;20283;-79
2023/01/27 14:59:43;;;;;;;5.80;3.30;;;;;4.70;102113.00;;;;10051225;29;20216;-79
2023/01/27 15:05:02;;;;;;;4.73;3.63;;;;;4.70;102111.00;;;;10111791;29;20210;-79
2023/01/27 15:10:19;;;;;;;5.70;3.90;;;;;4.60;102118.00;;;;10115157;29;20207;-78
2023/01/27 15:15:41;;;;;;;5.67;3.93;;;;;4.60;102125.00;;;;10076849;29;20214;-78
2023/01/27 15:20:55;;;;;;;4.93;3.53;;;;;4.60;102136.00;;;;10095232;29;20307;-79
2023/01/27 15:26:00;;;;;;;4.87;3.73;;;;;4.60;102137.00;;;;10109855;29;20670;-80
2023/01/27 15:31:15;;;;;;;6.43;4.17;;;;;4.50;102139.00;;;;10064791;29;20230;-79
2023/01/27 15:36:27;;;;;;;5.40;3.77;;;;;4.50;102149.00;;;;10098496;29;20301;-79
2023/01/27 15:41:28;;;;;;;8.03;4.10;;;;;4.40;102152.00;;;;10109928;29;20219;-78
2023/01/27 15:46:35;;;;;;;5.60;4.50;;;;;4.40;102156.00;;;;10094435;29;20219;-80
2023/01/27 15:51:37;;;;;;;6.77;4.77;;;;;4.30;102156.00;;;;10093926;29;20223;-79
2023/01/27 15:56:50;;;;;;;6.57;4.30;;;;;4.30;102162.00;;;;10078518;29;20215;-78
2023/01/27 16:02:11;;;;;;;7.37;5.00;;;;;4.30;102153.00;;;;10092877;29;20200;-78
2023/01/27 16:07:25;;;;;;;7.03;4.10;;;;;4.20;102163.00;;;;10063397;29;20835;-79
2023/01/27 16:12:30;;;;;;;7.07;4.27;;;;;4.20;102179.00;;;;10061481;29;20360;-78
2023/01/27 16:17:32;;;;;;;7.17;4.60;;;;;4.20;102175.00;;;;10141660;29;20282;-78
2023/01/27 16:22:39;;;;;;;7.10;4.70;;;;;4.10;102168.00;;;;10111589;29;20646;-79
2023/01/27 16:27:58;;;;;;;6.90;3.90;;;;;4.10;102186.00;;;;10109577;29;20234;-79
2023/01/27 16:33:15;;;;;;;6.13;4.27;;;;;4.10;102184.00;;;;10126163;29;20250;-79
2023/01/27 16:38:27;;;;;;;6.17;4.37;;;;;4.00;102192.00;;;;10129498;29;20217;-79
2023/01/27 16:44:05;;;;;;;6.60;4.57;;;;;4.00;102196.00;;;;10095376;29;20215;-79
2023/01/27 16:49:21;;;;;;;7.87;4.93;;;;;4.00;102194.00;;;;10059409;29;20723;-79
2023/01/27 16:54:30;;;;;;;6.83;4.30;;;;;4.00;102202.00;;;;10074609;29;20254;-79
2023/01/27 16:59:39;;;;;;;6.57;4.60;;;;;4.00;102204.00;;;;10108240;29;20943;-78
2023/01/27 17:04:57;;;;;;;5.83;3.90;;;;;4.00;102210.00;;;;10106976;29;20289;-78
2023/01/27 17:10:12;;;;;;;7.17;4.50;;;;;4.00;102222.00;;;;10102497;29;20349;-79
2023/01/27 17:15:27;;;;;;;6.47;4.37;;;;;4.00;102221.00;;;;10092231;29;20257;-78
2023/01/27 17:20:40;;;;;;;9.17;4.57;;;;;3.90;102223.00;;;;10100563;29;20310;-78
2023/01/27 17:25:42;;;;;;;6.83;4.63;;;;;3.90;102232.00;;;;10116427;29;20482;-77
2023/01/27 17:30:45;;;;;;;5.57;4.17;;;;;3.90;102230.00;;;;10116183;29;20211;-79
2023/01/27 17:35:51;;;;;;;6.70;4.60;;;;;3.90;102235.00;;;;10102467;29;20267;-79
2023/01/27 17:40:54;;;;;;;7.90;4.97;;;;;3.90;102235.00;;;;10101422;29;20210;-78
2023/01/27 17:46:13;;;;;;;7.30;4.77;;;;;3.90;102245.00;;;;10114806;29;20738;-79
2023/01/27 17:51:19;;;;;;;8.40;5.50;;;;;4.00;102246.00;;;;10084584;29;20243;-78
2023/01/27 17:56:32;;;;;;;7.13;5.00;;;;;4.00;102236.00;;;;10075269;29;20218;-79
2023/01/27 18:01:36;;;;;;;7.77;4.90;;;;;4.00;102250.00;;;;10106873;29;20693;-79
2023/01/27 18:06:40;;;;;;;8.87;5.03;;;;;4.00;102251.00;;;;10072521;29;20355;-79
2023/01/27 18:11:52;;;;;;;6.33;4.73;;;;;4.00;102243.00;;;;10082144;29;20232;-78
2023/01/27 18:17:22;;;;;;;16.50;4.90;;;;;4.00;102245.00;;;;10121880;29;20219;-78
2023/01/27 18:22:25;;;;;;;6.47;4.83;;;;;4.00;102249.00;;;;10146834;29;20702;-78
2023/01/27 18:27:32;;;;;;;7.30;4.93;;;;;4.00;102246.00;;;;10106568;29;20227;-79
2023/01/27 18:32:42;;;;;;;8.03;5.37;;;;;4.00;102250.00;;;;10081747;29;20317;-79
2023/01/27 18:37:55;;;;;;;8.77;5.23;;;;;4.00;102255.00;;;;10086500;29;20218;-78
2023/01/27 18:42:57;;;;;;;7.73;5.10;;;;;3.90;102255.00;;;;10097987;29;20219;-78
2023/01/27 18:47:59;;;;;;;8.60;5.40;;;;;3.90;102257.00;;;;10096366;29;20709;-78
2023/01/27 18:53:11;;;;;;;7.93;6.00;;;;;3.90;102262.00;;;;10099385;29;20317;-79
2023/01/27 18:58:13;;;;;;;9.77;5.70;;;;;3.90;102265.00;;;;10109992;29;20206;-79
2023/01/27 19:03:18;;;;;;;8.80;5.90;;;;;3.90;102270.00;;;;10105447;29;20669;-79
2023/01/27 19:08:24;;;;;;;8.50;5.90;;;;;3.90;102278.00;;;;10112114;29;20893;-81
2023/01/27 19:13:27;;;;;;;8.03;5.70;;;;;3.90;102287.00;;;;10104113;29;20568;-81
2023/01/27 19:18:34;;;;;;;9.30;6.57;;;;;3.90;102289.00;;;;10083450;29;20203;-81
2023/01/27 19:23:35;;;;;;;10.60;6.67;;;;;3.90;102281.00;;;;10066887;29;20209;-79
2023/01/27 19:28:37;;;;;;;11.70;7.43;;;;;3.90;102296.00;;;;10089284;29;20199;-79
2023/01/27 19:33:42;;;;;;;11.20;7.07;;;;;3.90;102299.00;;;;10087159;29;20888;-79
2023/01/27 19:38:45;;;;;;;12.70;8.33;;;;;3.90;102300.00;;;;10055101;29;20690;-79
2023/01/27 19:43:50;;;;;;;10.73;8.10;;;;;3.90;102298.00;;;;10093045;29;20210;-79
2023/01/27 19:48:55;;;;;;;9.43;5.63;;;;;3.90;102306.00;;;;10064079;29;20663;-79
2023/01/27 19:53:57;;;;;;;9.87;6.43;;;;;3.90;102315.00;;;;10097168;29;20232;-79
2023/01/27 19:59:00;;;;;;;8.63;5.87;;;;;3.90;102317.00;;;;10086920;29;20207;-79
2023/01/27 20:04:02;;;;;;;10.77;7.03;;;;;3.90;102311.00;;;;10070865;29;20298;-79
2023/01/27 20:09:04;;;;;;;10.63;6.97;;;;;3.90;102327.00;;;;10048985;29;20279;-79
2023/01/27 20:14:18;;;;;;;11.07;6.57;;;;;3.90;102327.00;;;;10081094;29;20239;-79
2023/01/27 20:19:20;;;;;;;9.77;6.57;;;;;3.90;102325.00;;;;10127791;29;20269;-79
2023/01/27 20:24:21;;;;;;;10.90;6.50;;;;;3.80;102317.00;;;;10093941;29;20266;-79
2023/01/27 20:29:23;;;;;;;8.63;5.73;;;;;3.90;102326.00;;;;10086863;29;20207;-78
2023/01/27 20:34:35;;;;;;;;;;;;;;;;;;;;;
2023/01/27 20:39:37;;;;;;;9.40;6.37;;;;;3.80;102325.00;;;;10095370;29;20663;-80
2023/01/27 20:44:39;;;;;;;9.10;5.43;;;;;3.80;102318.00;;;;10094989;29;20605;-79
2023/01/27 20:49:42;;;;;;;7.50;5.90;;;;;3.80;102307.00;;;;10115290;29;20203;-79
2023/01/27 20:54:44;;;;;;;7.67;6.03;;;;;3.80;102310.00;;;;10091777;29;20283;-79
2023/01/27 20:59:49;;;;;;;8.23;5.50;;;;;3.80;102319.00;;;;10080128;29;20208;-79
2023/01/27 21:04:55;;;;;;;6.80;4.30;;;;;3.80;102320.00;;;;10095248;29;20214;-79
2023/01/27 21:09:57;;;;;;;8.53;5.47;;;;;3.80;102324.00;;;;10103986;29;20250;-79
2023/01/27 21:15:02;;;;;;;7.00;4.87;;;;;3.80;102327.00;;;;10095309;29;20232;-79
2023/01/27 21:20:05;;;;;;;7.53;5.40;;;;;3.80;102327.00;;;;10086890;29;20231;-80
2023/01/27 21:25:07;;;;;;;9.73;6.53;;;;;3.80;102331.00;;;;10099976;29;20289;-79
2023/01/27 21:30:10;;;;;;;12.57;7.40;;;;;3.80;102323.00;;;;10094534;29;20611;-78
2023/01/27 21:35:12;;;;;;;9.00;6.20;;;;;3.80;102315.00;;;;10123261;29;20222;-79
2023/01/27 21:40:15;;;;;;;7.63;6.20;;;;;3.70;102310.00;;;;10087793;29;20214;-79
2023/01/27 21:45:19;;;;;;;8.43;5.83;;;;;3.70;102306.00;;;;10094908;29;20667;-80
2023/01/27 21:50:28;;;;;;;8.43;5.90;;;;;3.70;102295.00;;;;10094998;29;20275;-79
2023/01/27 21:55:30;;;;;;;9.10;5.50;;;;;3.70;102304.00;;;;10079141;29;20239;-80
2023/01/27 22:00:32;;;;;;;7.97;5.13;;;;;3.70;102302.00;;;;10105073;29;20220;-80
2023/01/27 22:05:37;;;;;;;8.40;5.93;;;;;3.70;102296.00;;;;10111880;29;20228;-79
2023/01/27 22:10:39;;;;;;;7.40;5.77;;;;;3.70;102300.00;;;;10079476;29;20196;-79
2023/01/27 22:15:48;;;;;;;8.90;6.63;;;;;3.70;102300.00;;;;10079266;29;20917;-80
2023/01/27 22:20:49;;;;;;;10.20;7.20;;;;;3.70;102298.00;;;;10071137;29;20210;-80
2023/01/27 22:25:53;;;;;;;12.27;7.90;;;;;3.70;102294.00;;;;10098796;29;20215;-79
2023/01/27 22:30:59;;;;;;;12.20;9.03;;;;;3.70;102296.00;;;;10111954;29;20210;-79
2023/01/27 22:36:03;;;;;;;16.63;8.27;;;;;3.70;102303.00;;;;10125121;29;20227;-79
2023/01/27 22:41:07;;;;;;;15.17;8.73;;;;;3.70;102294.00;;;;10078508;29;20237;-79
2023/01/27 22:46:11;;;;;;;14.10;9.17;;;;;3.70;102290.00;;;;10118792;29;20262;-80
2023/01/27 22:51:18;;;;;;;15.33;9.10;;;;;3.70;102285.00;;;;10111371;29;20694;-80
2023/01/27 22:56:20;;;;;;;18.63;11.90;;;;;3.70;102290.00;;;;10090309;29;20263;-79
2023/01/27 23:01:22;;;;;;;13.87;8.77;;;;;3.70;102282.00;;;;10092164;29;20299;-79
2023/01/27 23:06:24;;;;;;;14.17;9.47;;;;;3.60;102282.00;;;;10091451;29;20238;-79
2023/01/27 23:11:26;;;;;;;15.17;9.20;;;;;3.60;102285.00;;;;10077707;29;20207;-80
2023/01/27 23:16:29;;;;;;;23.03;12.33;;;;;3.60;102284.00;;;;10092828;29;20214;-79
2023/01/27 23:21:34;;;;;;;18.20;9.53;;;;;3.60;102290.00;;;;10057857;29;20295;-79
2023/01/27 23:26:36;;;;;;;19.77;11.00;;;;;3.60;102296.00;;;;10123140;29;20655;-79
2023/01/27 23:31:39;;;;;;;16.00;10.10;;;;;3.60;102301.00;;;;10093443;29;20211;-79
2023/01/27 23:36:42;;;;;;;19.43;11.70;;;;;3.60;102293.00;;;;10079873;29;20203;-79
2023/01/27 23:41:44;;;;;;;23.20;13.17;;;;;3.60;102310.00;;;;10086905;29;20263;-79
2023/01/27 23:46:46;;;;;;;17.67;10.17;;;;;3.60;102306.00;;;;10092999;29;20215;-79
2023/01/27 23:51:48;;;;;;;17.87;10.40;;;;;3.60;102308.00;;;;10063676;29;20699;-80
2023/01/27 23:56:50;;;;;;;14.67;9.93;;;;;3.60;102301.00;;;;10069355;29;20210;-79
